createdAt,value
2023-08-06T03:05:23.000Z,0.373
2023-08-06T03:15:23.216Z,1.494
2023-08-06T03:20:23.305Z,4.108
2023-08-06T03:23:01.542Z,6.723
2023-08-06T03:26:00.093Z,10.831
2023-08-06T03:33:17.510Z,27.639
2023-08-06T03:36:56.979Z,38.47
2023-08-06T03:42:37.125Z,63.121
2023-08-06T03:47:37.206Z,88.893
2023-08-06T03:52:37.284Z,123.255
2023-08-06T03:57:37.433Z,198.702
2023-08-06T04:01:52.724Z,262.944
2023-08-06T04:07:07.726Z,242.028
2023-08-06T04:11:12.647Z,330.174
2023-08-06T04:15:37.861Z,457.164
2023-08-06T04:18:56.861Z,561.744
2023-08-06T04:23:52.628Z,714.132
2023-08-06T04:29:17.763Z,956.16
2023-08-06T04:31:56.072Z,1147.392
2023-08-06T04:34:49.526Z,1338.624
2023-08-06T04:37:37.836Z,1511.928
2023-08-06T04:42:28.574Z,1780.848
2023-08-06T04:47:48.761Z,1924.272
2023-08-06T04:52:48.860Z,2438.208
2023-08-06T04:57:48.980Z,2760.912
2023-08-06T05:02:19.395Z,3047.76
2023-08-06T05:05:02.635Z,3179.232
2023-08-06T05:09:02.409Z,3227.04
2023-08-06T05:11:35.316Z,3298.752
2023-08-06T05:14:59.401Z,3633.408
2023-08-06T05:17:33.632Z,3848.544
2023-08-06T05:22:32.703Z,3896.352
2023-08-06T05:26:47.814Z,4039.776
2023-08-06T05:32:34.717Z,4302.72
2023-08-06T05:36:08.930Z,5091.552
2023-08-06T05:41:39.296Z,6215.04
2023-08-06T05:46:29.984Z,6597.504
2023-08-06T05:52:00.362Z,6501.888
2023-08-06T05:55:54.977Z,6693.12
2023-08-06T06:01:29.751Z,6501.888
2023-08-06T06:04:28.359Z,6549.696
2023-08-06T06:10:56.040Z,7888.32
2023-08-06T06:16:53.102Z,9274.752
2023-08-06T06:20:22.219Z,9083.52
2023-08-06T06:24:01.520Z,8605.44
2023-08-06T06:27:00.106Z,8605.44
2023-08-06T06:29:33.125Z,8605.44
2023-08-06T06:34:37.313Z,8557.632
2023-08-06T06:39:37.495Z,8414.208
2023-08-06T06:42:10.664Z,8079.552
2023-08-06T06:45:39.803Z,7553.664
2023-08-06T06:48:33.188Z,8509.824
2023-08-06T06:51:26.646Z,8748.864
2023-08-06T06:56:11.152Z,9800.64
2023-08-06T06:59:50.587Z,10469.952
2023-08-06T07:04:56.737Z,10565.568
2023-08-06T07:09:01.705Z,10708.992
2023-08-06T07:11:51.985Z,10852.416
2023-08-06T07:14:34.784Z,11952
2023-08-06T07:17:53.797Z,12047.616
2023-08-06T07:20:47.215Z,12143.232
2023-08-06T07:23:20.423Z,11808.576
2023-08-06T07:26:24.035Z,11139.264
2023-08-06T07:30:08.726Z,11091.456
2023-08-06T07:33:02.171Z,11569.536
2023-08-06T07:37:22.294Z,11904.192
2023-08-06T07:40:20.914Z,12238.848
2023-08-06T07:43:09.152Z,12095.424
2023-08-06T07:45:42.228Z,12430.08
2023-08-06T07:48:20.457Z,13577.472
2023-08-06T07:50:58.630Z,14055.552
2023-08-06T07:53:36.766Z,14533.632
2023-08-06T07:56:55.685Z,14151.168
2023-08-06T07:59:54.319Z,15202.944
2023-08-06T08:02:42.924Z,16445.952
2023-08-06T08:05:51.476Z,16828.416
2023-08-06T08:09:05.361Z,17593.344
2023-08-06T08:12:24.377Z,18645.12
2023-08-06T08:15:17.905Z,19601.28
2023-08-06T08:17:50.938Z,20557.44
2023-08-06T08:20:39.418Z,21800.448
2023-08-06T08:23:12.546Z,22852.224
2023-08-06T08:25:50.761Z,23617.152
2023-08-06T08:28:34.038Z,23330.304
2023-08-06T08:31:27.544Z,21896.064
2023-08-06T08:34:51.608Z,21800.448
2023-08-06T08:37:45.190Z,21131.136
2023-08-06T08:40:18.281Z,20939.904
2023-08-06T08:43:11.754Z,18645.12
2023-08-06T08:46:15.523Z,18262.656
2023-08-06T08:49:24.314Z,18549.504
2023-08-06T08:51:57.432Z,21322.368
2023-08-06T08:54:50.974Z,24477.696
2023-08-06T08:58:04.909Z,24860.16
2023-08-06T09:00:48.193Z,21513.6
2023-08-06T09:03:21.305Z,17115.264
2023-08-06T09:05:54.366Z,14438.016
2023-08-06T09:08:42.749Z,14438.016
2023-08-06T09:11:20.928Z,15681.024
2023-08-06T09:13:59.103Z,15872.256
2023-08-06T09:16:32.326Z,14916.096
2023-08-06T09:19:30.880Z,15202.944
2023-08-06T09:22:29.507Z,14151.168
2023-08-06T09:25:02.594Z,13864.32
2023-08-06T09:27:35.611Z,14916.096
2023-08-06T09:30:08.719Z,13959.936
2023-08-06T09:33:07.263Z,13290.624
2023-08-06T09:36:46.643Z,13099.392
2023-08-06T09:39:35.048Z,13864.32
2023-08-06T09:42:08.125Z,13959.936
2023-08-06T09:45:57.753Z,14055.552
2023-08-06T09:48:30.759Z,13099.392
2023-08-06T09:51:14.019Z,13195.008
2023-08-06T09:53:57.314Z,14438.016
2023-08-06T09:57:41.779Z,14342.4
2023-08-06T10:00:38.635Z,14629.248
2023-08-06T10:04:55.901Z,16445.952
2023-08-06T10:07:28.603Z,17115.264
2023-08-06T10:10:01.660Z,17306.496
2023-08-06T10:13:30.851Z,17019.648
2023-08-06T10:16:09.143Z,18453.888
2023-08-06T10:18:47.201Z,21226.752
2023-08-06T10:21:20.299Z,21226.752
2023-08-06T10:24:59.814Z,21035.52
2023-08-06T10:27:43.070Z,24477.696
2023-08-06T10:30:26.387Z,22182.912
2023-08-06T10:33:19.921Z,19696.896
2023-08-06T10:35:53.019Z,16732.8
2023-08-06T10:38:51.575Z,17497.728
2023-08-06T10:41:24.725Z,18358.272
2023-08-06T10:43:57.819Z,18645.12
2023-08-06T10:47:11.778Z,21896.064
2023-08-06T10:49:44.778Z,20079.36
2023-08-06T10:52:33.208Z,20653.056
2023-08-06T10:55:06.297Z,23617.152
2023-08-06T10:57:49.590Z,24286.464
2023-08-06T11:01:13.713Z,20939.904
2023-08-06T11:03:57.010Z,24668.928
2023-08-06T11:06:30.109Z,26390.016
2023-08-06T11:09:18.434Z,29067.264
2023-08-06T11:12:57.855Z,34995.456
2023-08-06T11:15:30.894Z,38055.168
2023-08-06T11:18:15.927Z,43027.2
2023-08-06T11:20:54.959Z,46278.144
2023-08-06T11:23:31.046Z,45130.752
2023-08-06T11:26:18.245Z,43409.664
2023-08-06T11:29:05.621Z,40349.952
2023-08-06T11:31:40.591Z,49337.856
2023-08-06T11:34:35.005Z,49337.856
2023-08-06T11:37:06.406Z,41114.88
2023-08-06T11:39:39.451Z,35569.152
2023-08-06T11:42:27.883Z,38055.168
2023-08-06T11:45:31.470Z,39585.024
2023-08-06T11:47:59.594Z,39776.256
2023-08-06T11:50:48.001Z,36525.312
2023-08-06T11:53:36.309Z,33848.064
2023-08-06T11:56:14.518Z,34039.296
2023-08-06T11:58:52.660Z,36142.848
2023-08-06T12:01:36.180Z,39776.256
2023-08-06T12:04:29.246Z,49720.32
2023-08-06T12:07:18.880Z,51250.176
2023-08-06T12:10:20.109Z,64636.416
2023-08-06T12:13:19.838Z,48572.928
2023-08-06T12:16:06.568Z,42644.736
2023-08-06T12:18:37.612Z,64636.416
2023-08-06T12:21:11.381Z,35760.384
2023-08-06T12:24:02.970Z,23043.456
2023-08-06T12:27:01.498Z,17688.96
2023-08-06T12:29:44.841Z,19888.128
2023-08-06T12:32:23.097Z,22660.992
2023-08-06T12:34:56.759Z,34995.456
2023-08-06T12:37:51.975Z,38246.4
2023-08-06T12:40:37.054Z,48572.928
2023-08-06T12:43:10.664Z,40923.648
2023-08-06T12:45:43.794Z,41879.808
2023-08-06T12:48:37.311Z,30979.584
2023-08-06T12:51:56.512Z,29449.728
2023-08-06T12:54:44.679Z,28302.336
2023-08-06T12:57:17.880Z,26007.552
2023-08-06T13:00:36.790Z,21991.68
2023-08-06T13:03:20.201Z,20939.904
2023-08-06T13:06:13.625Z,20174.976
2023-08-06T13:09:47.866Z,18740.736
2023-08-06T13:12:31.133Z,22947.84
2023-08-06T13:15:26.190Z,29067.264
2023-08-06T13:18:04.498Z,35951.616
2023-08-06T13:20:52.291Z,58516.992
2023-08-06T13:23:36.274Z,80317.44
2023-08-06T13:26:21.986Z,71520.768
2023-08-06T13:29:25.802Z,66548.736
2023-08-06T13:32:14.140Z,70373.376
2023-08-06T13:35:07.733Z,69608.448
2023-08-06T13:37:39.441Z,33656.832
2023-08-06T13:40:10.376Z,23617.152
2023-08-06T13:42:43.414Z,30214.656
2023-08-06T13:45:18.499Z,23139.072
2023-08-06T13:47:56.406Z,32126.976
2023-08-06T13:50:29.517Z,24860.16
2023-08-06T13:53:12.791Z,23712.768
2023-08-06T13:55:45.812Z,29640.96
2023-08-06T13:58:37.659Z,18931.968
2023-08-06T14:01:10.646Z,18358.272
2023-08-06T14:03:59.048Z,18740.736
2023-08-06T14:07:01.040Z,22852.224
2023-08-06T14:09:35.364Z,25816.32
2023-08-06T14:12:13.547Z,23043.456
2023-08-06T14:15:17.241Z,17880.192
2023-08-06T14:18:00.584Z,15776.64
2023-08-06T14:20:33.562Z,13864.32
2023-08-06T14:23:06.692Z,12095.424
2023-08-06T14:25:44.859Z,9705.024
2023-08-06T14:28:17.489Z,7744.896
2023-08-06T14:30:58.157Z,6119.424
2023-08-06T14:34:15.131Z,5378.4
2023-08-06T14:37:08.672Z,5234.976
2023-08-06T14:39:58.427Z,5593.536
2023-08-06T14:42:57.061Z,6406.272
2023-08-06T14:45:35.243Z,7936.128
2023-08-06T14:48:13.361Z,11808.576
2023-08-06T14:51:42.637Z,12908.16
2023-08-06T14:54:30.975Z,14629.248
2023-08-06T14:58:13.947Z,16924.032
2023-08-06T15:00:52.258Z,19218.816
2023-08-06T15:03:50.840Z,22947.84
2023-08-06T15:06:39.185Z,21035.52
2023-08-06T15:09:12.327Z,21704.832
2023-08-06T15:11:45.420Z,22469.76
2023-08-06T15:14:28.771Z,25625.088
2023-08-06T15:17:05.722Z,24095.232
2023-08-06T15:19:39.021Z,22947.84
2023-08-06T15:22:17.249Z,24190.848
2023-08-06T15:25:36.261Z,28876.032
2023-08-06T15:28:13.904Z,30788.352
2023-08-06T15:30:57.927Z,43027.2
2023-08-06T15:33:44.544Z,22660.992
2023-08-06T15:36:16.114Z,19027.584
2023-08-06T15:39:04.516Z,14246.784
2023-08-06T15:41:39.786Z,21226.752
2023-08-06T15:44:17.384Z,24668.928
2023-08-06T15:46:59.922Z,19410.048
2023-08-06T15:49:34.388Z,14438.016
2023-08-06T15:53:13.887Z,14055.552
2023-08-06T15:56:07.368Z,17593.344
2023-08-06T15:59:05.901Z,18549.504
2023-08-06T16:02:04.557Z,18931.968
2023-08-06T16:05:38.834Z,16254.72
2023-08-06T16:08:16.950Z,14055.552
2023-08-06T16:10:55.136Z,12812.544
2023-08-06T16:13:38.459Z,10948.032
2023-08-06T16:16:16.638Z,9800.64
2023-08-06T16:20:01.161Z,9418.176
2023-08-06T16:23:20.216Z,10756.8
2023-08-06T16:25:53.293Z,11760.768
2023-08-06T16:28:36.683Z,13195.008
2023-08-06T16:31:09.673Z,14533.632
2023-08-06T16:33:45.094Z,16637.184
2023-08-06T16:36:20.984Z,17593.344
2023-08-06T16:39:01.145Z,15776.64
2023-08-06T16:41:54.752Z,12430.08
2023-08-06T16:44:53.381Z,11330.496
2023-08-06T16:47:41.784Z,10230.912
2023-08-06T16:50:20.049Z,9370.368
2023-08-06T16:52:53.059Z,8175.168
2023-08-06T16:56:01.933Z,7888.32
2023-08-06T16:59:20.872Z,8414.208
2023-08-06T17:01:54.028Z,8222.976
2023-08-06T17:06:44.799Z,8079.552
2023-08-06T17:09:17.909Z,7792.704
2023-08-06T17:11:50.935Z,6932.16
2023-08-06T17:14:49.511Z,6358.464
2023-08-06T17:19:16.615Z,6788.736
2023-08-06T17:21:50.477Z,13195.008
2023-08-06T17:24:30.506Z,12430.08
2023-08-06T17:27:13.867Z,16637.184
2023-08-06T17:29:52.152Z,11999.808
2023-08-06T17:32:25.295Z,7936.128
2023-08-06T17:35:03.438Z,7027.776
2023-08-06T17:37:36.617Z,5976
2023-08-06T17:40:14.673Z,5306.688
2023-08-06T17:43:54.070Z,4804.704
2023-08-06T17:46:37.327Z,4541.76
2023-08-06T17:50:01.437Z,4135.392
2023-08-06T17:52:39.577Z,4063.68
2023-08-06T17:55:22.925Z,3896.352
2023-08-06T17:58:26.585Z,3489.984
2023-08-06T18:01:04.832Z,3107.52
2023-08-06T18:03:37.856Z,2713.104
2023-08-06T18:06:26.157Z,2402.352
2023-08-06T18:09:24.728Z,2151.36
2023-08-06T18:11:57.865Z,2019.888
2023-08-06T18:14:36.089Z,1768.896
2023-08-06T18:17:09.205Z,1529.856
2023-08-06T18:19:42.224Z,1332.648
2023-08-06T18:22:25.493Z,1111.536
2023-08-06T18:24:58.576Z,1003.968
2023-08-06T18:28:02.336Z,854.568
2023-08-06T18:30:50.659Z,684.252
2023-08-06T18:33:54.225Z,516.924
2023-08-06T18:36:27.434Z,367.524
2023-08-06T18:39:00.626Z,261.45
2023-08-06T18:41:38.882Z,180.027
2023-08-06T18:44:42.535Z,106.074
2023-08-06T18:47:15.572Z,79.555
2023-08-06T18:49:48.732Z,62.374
2023-08-06T18:52:47.287Z,41.832
2023-08-06T18:55:35.694Z,27.265
2023-08-06T18:58:29.178Z,16.807
2023-08-06T19:01:53.397Z,10.458
2023-08-06T19:04:26.475Z,6.723
2023-08-06T19:07:19.953Z,4.482
2023-08-06T19:10:03.253Z,2.241
2023-08-06T19:12:54.778Z,0.747
2023-08-06T19:23:48.144Z,0
